createdAt,value
2023-04-16T00:00:58.027Z,7.22
2023-04-16T00:06:10.929Z,7.09
2023-04-16T00:11:14.131Z,7.03
2023-04-16T00:16:17.206Z,6.99
2023-04-16T00:21:19.746Z,6.98
2023-04-16T00:26:22.795Z,6.98
2023-04-16T00:31:34.142Z,6.95
2023-04-16T00:36:37.629Z,6.91
2023-04-16T00:41:41.549Z,6.90
2023-04-16T00:46:46.318Z,6.85
2023-04-16T00:51:48.812Z,6.77
2023-04-16T00:56:52.544Z,6.67
2023-04-16T01:01:55.759Z,6.58
2023-04-16T01:06:59.589Z,6.47
2023-04-16T01:12:02.499Z,6.35
2023-04-16T01:17:06.533Z,6.17
2023-04-16T01:22:09.865Z,6.05
2023-04-16T01:27:13.613Z,5.93
2023-04-16T01:32:17.488Z,5.78
2023-04-16T01:37:21.056Z,5.63
2023-04-16T01:42:23.102Z,5.58
2023-04-16T01:47:26.669Z,5.55
2023-04-16T01:52:29.492Z,5.41
2023-04-16T01:57:32.429Z,5.28
2023-04-16T02:02:35.972Z,5.20
2023-04-16T02:07:39.950Z,5.12
2023-04-16T02:12:43.733Z,5.04
2023-04-16T02:17:48.576Z,5.01
2023-04-16T02:22:51.222Z,4.98
2023-04-16T02:27:55.232Z,4.97
2023-04-16T02:32:58.143Z,4.94
2023-04-16T02:38:04.823Z,4.89
2023-04-16T02:43:07.369Z,4.90
2023-04-16T02:48:10.260Z,4.90
2023-04-16T02:53:14.928Z,4.94
2023-04-16T02:58:17.880Z,5.00
2023-04-16T03:03:21.688Z,5.06
2023-04-16T03:08:24.770Z,5.13
2023-04-16T03:13:27.773Z,5.19
2023-04-16T03:18:30.668Z,5.27
2023-04-16T03:23:35.877Z,5.36
2023-04-16T03:28:39.831Z,5.46
2023-04-16T03:33:43.380Z,5.56
2023-04-16T03:38:47.226Z,5.64
2023-04-16T03:43:51.699Z,5.74
2023-04-16T03:48:55.752Z,5.84
2023-04-16T03:53:59.617Z,5.94
2023-04-16T03:59:03.056Z,6.03
2023-04-16T04:04:10.175Z,6.11
2023-04-16T04:09:14.032Z,6.20
2023-04-16T04:14:16.301Z,6.27
2023-04-16T04:19:19.522Z,6.36
2023-04-16T04:24:23.599Z,6.44
2023-04-16T04:29:27.153Z,6.50
2023-04-16T04:34:31.318Z,6.59
2023-04-16T04:39:34.397Z,6.66
2023-04-16T04:44:36.599Z,6.73
2023-04-16T04:49:40.492Z,6.75
2023-04-16T04:54:45.480Z,6.80
2023-04-16T04:59:49.836Z,6.89
2023-04-16T05:04:53.388Z,6.92
2023-04-16T05:09:57.945Z,6.97
2023-04-16T05:15:01.668Z,7.03
2023-04-16T05:20:06.179Z,7.03
2023-04-16T05:25:09.130Z,7.09
2023-04-16T05:30:12.637Z,7.13
2023-04-16T05:35:17.312Z,7.20
2023-04-16T05:40:20.500Z,7.26
2023-04-16T05:45:24.058Z,7.34
2023-04-16T05:50:28.092Z,7.42
2023-04-16T05:55:30.723Z,7.45
2023-04-16T06:00:33.857Z,7.49
2023-04-16T06:05:36.929Z,7.52
2023-04-16T06:10:40.650Z,7.58
2023-04-16T06:15:44.745Z,7.67
2023-04-16T06:20:50.443Z,7.75
2023-04-16T06:25:54.493Z,7.88
2023-04-16T06:31:00.274Z,7.96
2023-04-16T06:36:03.166Z,8.03
2023-04-16T06:41:06.264Z,8.10
2023-04-16T06:46:09.955Z,8.19
2023-04-16T06:51:13.381Z,8.21
2023-04-16T06:56:16.734Z,8.31
2023-04-16T07:01:23.012Z,8.40
2023-04-16T07:06:28.332Z,8.43
2023-04-16T07:11:33.968Z,8.53
2023-04-16T07:16:39.046Z,8.66
2023-04-16T07:21:43.711Z,8.78
2023-04-16T07:26:46.566Z,8.78
2023-04-16T07:31:49.258Z,8.90
2023-04-16T07:36:52.098Z,9.03
2023-04-16T07:41:55.068Z,9.11
2023-04-16T07:46:57.284Z,9.19
2023-04-16T07:52:00.586Z,9.24
2023-04-16T07:57:02.875Z,9.30
2023-04-16T08:02:06.160Z,9.34
2023-04-16T08:07:09.836Z,9.43
2023-04-16T08:12:12.785Z,9.55
2023-04-16T08:17:16.528Z,9.64
2023-04-16T08:22:25.747Z,9.67
2023-04-16T08:27:29.015Z,9.74
2023-04-16T08:32:32.912Z,9.77
2023-04-16T08:37:37.716Z,9.70
2023-04-16T08:42:49.274Z,9.66
2023-04-16T08:47:53.175Z,9.55
2023-04-16T08:53:06.704Z,9.58
2023-04-16T08:58:21.932Z,9.56
2023-04-16T09:03:24.363Z,9.63
2023-04-16T09:08:28.161Z,9.84
2023-04-16T09:13:31.835Z,10.09
2023-04-16T09:18:34.863Z,10.11
2023-04-16T09:23:39.719Z,10.16
2023-04-16T09:28:46.390Z,10.33
2023-04-16T09:34:09.538Z,10.62
2023-04-16T09:39:20.209Z,11.01
2023-04-16T09:44:38.734Z,11.25
2023-04-16T09:49:43.949Z,11.61
2023-04-16T09:54:55.061Z,11.87
2023-04-16T10:00:07.476Z,12.13
2023-04-16T10:05:16.889Z,12.56
2023-04-16T10:10:20.301Z,13.22
2023-04-16T10:15:23.150Z,13.78
2023-04-16T10:20:27.504Z,14.20
2023-04-16T10:25:30.759Z,14.28
2023-04-16T10:30:37.267Z,14.27
2023-04-16T10:35:40.508Z,14.66
2023-04-16T10:40:46.225Z,15.12
2023-04-16T10:45:49.588Z,15.37
2023-04-16T10:51:00.603Z,15.53
2023-04-16T10:56:05.553Z,15.42
2023-04-16T11:01:14.041Z,15.51
2023-04-16T11:06:24.183Z,15.68
2023-04-16T11:11:39.614Z,15.54
2023-04-16T11:16:43.307Z,15.64
2023-04-16T11:21:47.700Z,15.71
2023-04-16T11:26:54.620Z,15.71
2023-04-16T11:31:58.819Z,15.77
2023-04-16T11:37:01.599Z,15.83
2023-04-16T11:42:04.604Z,15.56
2023-04-16T11:47:07.820Z,15.27
2023-04-16T11:52:10.893Z,15.04
2023-04-16T11:57:15.444Z,14.95
2023-04-16T12:02:18.830Z,14.89
2023-04-16T12:07:22.699Z,14.90
2023-04-16T12:12:27.900Z,14.96
2023-04-16T12:17:32.585Z,15.35
2023-04-16T12:22:37.515Z,15.59
2023-04-16T12:27:55.852Z,15.66
2023-04-16T12:33:16.535Z,15.60
2023-04-16T12:38:19.056Z,15.77
2023-04-16T12:43:21.129Z,16.08
2023-04-16T12:48:23.803Z,16.17
2023-04-16T12:53:26.924Z,16.38
2023-04-16T12:58:30.341Z,16.48
2023-04-16T13:03:32.672Z,16.39
2023-04-16T13:49:10.253Z,15.68
2023-04-16T14:13:34.724Z,15.02
2023-04-16T14:18:42.345Z,14.95
2023-04-16T14:23:47.189Z,14.99
2023-04-16T14:28:50.595Z,15.09
2023-04-16T14:33:53.086Z,15.22
2023-04-16T14:38:56.058Z,15.41
2023-04-16T14:44:00.403Z,15.54
2023-04-16T14:49:02.796Z,15.73
2023-04-16T14:54:06.641Z,15.92
2023-04-16T14:59:09.062Z,16.05
2023-04-16T15:04:12.402Z,16.17
2023-04-16T15:09:15.427Z,16.23
2023-04-16T15:14:18.988Z,16.33
2023-04-16T15:19:22.429Z,16.34
2023-04-16T15:24:26.042Z,16.36
2023-04-16T15:29:28.797Z,16.42
2023-04-16T15:34:31.277Z,16.47
2023-04-16T15:39:35.325Z,16.47
2023-04-16T15:44:42.209Z,16.37
2023-04-16T15:49:45.220Z,16.30
2023-04-16T15:54:49.355Z,16.13
2023-04-16T16:00:05.913Z,15.89
2023-04-16T16:05:14.248Z,15.40
2023-04-16T16:10:16.840Z,15.06
2023-04-16T16:15:22.016Z,14.75
2023-04-16T16:20:25.601Z,14.44
2023-04-16T16:25:30.056Z,14.21
2023-04-16T16:30:34.923Z,14.07
2023-04-16T16:35:38.738Z,13.95
2023-04-16T16:40:43.183Z,13.80
2023-04-16T16:45:47.081Z,13.71
2023-04-16T16:50:50.123Z,13.62
2023-04-16T16:55:54.048Z,13.50
2023-04-16T17:00:56.792Z,13.36
2023-04-16T17:06:03.572Z,13.20
2023-04-16T17:11:06.903Z,13.10
2023-04-16T17:16:10.734Z,12.99
2023-04-16T17:21:16.538Z,12.87
2023-04-16T17:26:20.633Z,12.70
2023-04-16T17:31:26.233Z,12.48
2023-04-16T17:36:35.130Z,12.26
2023-04-16T17:41:39.236Z,12.11
2023-04-16T17:46:44.053Z,12.01
2023-04-16T17:51:54.968Z,11.89
2023-04-16T17:57:03.504Z,11.74
2023-04-16T18:02:08.597Z,11.55
2023-04-16T18:07:16.113Z,11.36
2023-04-16T18:12:23.291Z,11.19
2023-04-16T18:17:25.833Z,11.03
2023-04-16T18:22:36.432Z,10.87
2023-04-16T18:27:40.980Z,10.72
2023-04-16T18:33:10.082Z,10.57
2023-04-16T18:38:18.480Z,10.39
2023-04-16T18:43:23.973Z,10.23
2023-04-16T18:48:28.182Z,10.08
2023-04-16T18:53:31.347Z,9.92
2023-04-16T18:58:34.219Z,9.76
2023-04-16T19:03:37.784Z,9.61
2023-04-16T19:08:40.526Z,9.46
2023-04-16T19:13:43.738Z,9.32
2023-04-16T19:18:47.279Z,9.15
2023-04-16T19:23:51.448Z,8.97
2023-04-16T19:28:55.071Z,8.78
2023-04-16T19:33:58.479Z,8.65
2023-04-16T19:39:00.737Z,8.55
2023-04-16T19:44:04.062Z,8.45
2023-04-16T19:49:06.795Z,8.32
2023-04-16T19:54:09.217Z,8.20
2023-04-16T19:59:11.600Z,8.08
2023-04-16T20:04:15.926Z,7.98
2023-04-16T20:09:20.009Z,7.87
2023-04-16T20:14:23.164Z,7.77
2023-04-16T20:19:29.944Z,7.65
2023-04-16T20:24:33.873Z,7.57
2023-04-16T20:29:36.906Z,7.48
2023-04-16T20:34:40.751Z,7.38
2023-04-16T20:39:46.894Z,7.22
2023-04-16T20:44:50.412Z,7.01
2023-04-16T20:49:54.655Z,6.86
2023-04-16T20:54:58.995Z,6.80
2023-04-16T21:00:04.123Z,6.74
2023-04-16T21:05:14.382Z,6.71
2023-04-16T21:10:19.780Z,6.72
2023-04-16T21:15:23.947Z,6.70
2023-04-16T21:20:30.545Z,6.65
2023-04-16T21:25:34.538Z,6.55
2023-04-16T21:30:36.640Z,6.47
2023-04-16T21:35:39.332Z,6.40
2023-04-16T21:40:42.500Z,6.34
2023-04-16T21:45:44.973Z,6.30
2023-04-16T21:50:47.945Z,6.25
2023-04-16T21:55:50.193Z,6.19
2023-04-16T22:00:54.260Z,6.19
2023-04-16T22:06:01.059Z,6.18
2023-04-16T22:11:04.255Z,6.23
2023-04-16T22:16:08.821Z,6.26
2023-04-16T22:21:14.441Z,6.29
2023-04-16T22:26:17.383Z,6.30
2023-04-16T22:31:20.262Z,6.30
2023-04-16T22:36:24.401Z,6.29
2023-04-16T22:41:28.019Z,6.24
2023-04-16T22:46:31.068Z,6.18
2023-04-16T22:51:35.359Z,6.15
2023-04-16T22:56:39.072Z,6.11
2023-04-16T23:01:42.486Z,6.06
2023-04-16T23:06:46.318Z,5.95
2023-04-16T23:11:51.177Z,5.87
2023-04-16T23:16:54.351Z,5.81
2023-04-16T23:22:01.547Z,5.74
2023-04-16T23:27:04.853Z,5.67
2023-04-16T23:32:08.136Z,5.61
2023-04-16T23:37:11.022Z,5.54
2023-04-16T23:42:14.274Z,5.47
2023-04-16T23:47:16.205Z,5.40
2023-04-16T23:52:18.891Z,5.37
2023-04-16T23:57:22.949Z,5.35
